sensor_id;sensor_type;location;lat;lon;timestamp;temperature;humidity
64718;DHT22;62506;46.070;14.492;2022-07-29T00:01:14;25.90;56.50
64718;DHT22;62506;46.070;14.492;2022-07-29T00:03:40;25.90;56.60
64718;DHT22;62506;46.070;14.492;2022-07-29T00:06:06;25.90;56.50
64718;DHT22;62506;46.070;14.492;2022-07-29T00:08:31;25.90;56.50
64718;DHT22;62506;46.070;14.492;2022-07-29T00:10:57;25.90;56.50
64718;DHT22;62506;46.070;14.492;2022-07-29T00:13:22;25.90;56.50
64718;DHT22;62506;46.070;14.492;2022-07-29T00:15:48;25.90;56.50
64718;DHT22;62506;46.070;14.492;2022-07-29T00:18:13;25.90;56.50
64718;DHT22;62506;46.070;14.492;2022-07-29T00:20:39;25.90;56.50
64718;DHT22;62506;46.070;14.492;2022-07-29T00:23:04;25.90;56.50
64718;DHT22;62506;46.070;14.492;2022-07-29T00:25:30;25.80;56.50
64718;DHT22;62506;46.070;14.492;2022-07-29T00:27:55;25.80;56.50
64718;DHT22;62506;46.070;14.492;2022-07-29T00:30:21;25.80;56.50
64718;DHT22;62506;46.070;14.492;2022-07-29T00:32:46;25.80;56.60
64718;DHT22;62506;46.070;14.492;2022-07-29T00:35:12;25.80;56.70
64718;DHT22;62506;46.070;14.492;2022-07-29T00:37:56;25.80;56.60
64718;DHT22;62506;46.070;14.492;2022-07-29T00:40:21;25.70;56.50
64718;DHT22;62506;46.070;14.492;2022-07-29T00:42:47;25.80;56.70
64718;DHT22;62506;46.070;14.492;2022-07-29T00:45:13;25.80;56.70
64718;DHT22;62506;46.070;14.492;2022-07-29T00:47:39;25.80;56.80
64718;DHT22;62506;46.070;14.492;2022-07-29T00:50:06;25.80;56.70
64718;DHT22;62506;46.070;14.492;2022-07-29T00:52:32;25.70;56.60
64718;DHT22;62506;46.070;14.492;2022-07-29T00:54:58;25.70;56.60
64718;DHT22;62506;46.070;14.492;2022-07-29T00:57:23;25.80;56.70
64718;DHT22;62506;46.070;14.492;2022-07-29T00:59:49;25.70;56.60
64718;DHT22;62506;46.070;14.492;2022-07-29T01:02:14;25.70;56.60
64718;DHT22;62506;46.070;14.492;2022-07-29T01:04:40;25.70;56.60
64718;DHT22;62506;46.070;14.492;2022-07-29T01:07:06;25.70;56.50
64718;DHT22;62506;46.070;14.492;2022-07-29T01:09:32;25.70;56.50
64718;DHT22;62506;46.070;14.492;2022-07-29T01:11:59;25.70;56.40
64718;DHT22;62506;46.070;14.492;2022-07-29T01:14:25;25.70;56.40
64718;DHT22;62506;46.070;14.492;2022-07-29T01:16:51;25.80;56.40
64718;DHT22;62506;46.070;14.492;2022-07-29T01:19:31;25.80;56.40
64718;DHT22;62506;46.070;14.492;2022-07-29T01:21:59;25.80;56.50
64718;DHT22;62506;46.070;14.492;2022-07-29T01:24:30;25.80;56.40
64718;DHT22;62506;46.070;14.492;2022-07-29T01:27:10;25.80;56.50
64718;DHT22;62506;46.070;14.492;2022-07-29T01:29:44;25.80;56.40
64718;DHT22;62506;46.070;14.492;2022-07-29T01:32:11;25.80;56.40
64718;DHT22;62506;46.070;14.492;2022-07-29T01:37:19;25.80;56.40
64718;DHT22;62506;46.070;14.492;2022-07-29T01:39:46;25.70;56.50
64718;DHT22;62506;46.070;14.492;2022-07-29T01:44:59;25.70;56.50
64718;DHT22;62506;46.070;14.492;2022-07-29T01:47:26;25.70;56.50
64718;DHT22;62506;46.070;14.492;2022-07-29T01:49:54;25.70;56.50
64718;DHT22;62506;46.070;14.492;2022-07-29T01:52:27;25.70;56.60
64718;DHT22;62506;46.070;14.492;2022-07-29T01:54:57;25.70;56.50
64718;DHT22;62506;46.070;14.492;2022-07-29T01:57:27;25.70;56.50
64718;DHT22;62506;46.070;14.492;2022-07-29T01:59:53;25.70;56.50
64718;DHT22;62506;46.070;14.492;2022-07-29T02:02:19;25.70;56.80
64718;DHT22;62506;46.070;14.492;2022-07-29T02:04:46;25.80;56.80
64718;DHT22;62506;46.070;14.492;2022-07-29T02:07:15;25.70;56.60
64718;DHT22;62506;46.070;14.492;2022-07-29T02:09:42;25.70;56.40
64718;DHT22;62506;46.070;14.492;2022-07-29T02:12:09;25.70;56.20
64718;DHT22;62506;46.070;14.492;2022-07-29T02:14:37;25.70;56.20
64718;DHT22;62506;46.070;14.492;2022-07-29T02:17:03;25.70;56.20
64718;DHT22;62506;46.070;14.492;2022-07-29T02:19:30;25.80;56.20
64718;DHT22;62506;46.070;14.492;2022-07-29T02:21:56;25.80;56.20
64718;DHT22;62506;46.070;14.492;2022-07-29T02:24:23;25.80;56.20
64718;DHT22;62506;46.070;14.492;2022-07-29T02:26:49;25.70;56.80
64718;DHT22;62506;46.070;14.492;2022-07-29T02:29:16;25.70;56.10
64718;DHT22;62506;46.070;14.492;2022-07-29T02:31:44;25.70;56.10
64718;DHT22;62506;46.070;14.492;2022-07-29T02:34:12;25.70;56.00
64718;DHT22;62506;46.070;14.492;2022-07-29T02:36:38;25.70;56.00
64718;DHT22;62506;46.070;14.492;2022-07-29T02:39:04;25.70;56.00
64718;DHT22;62506;46.070;14.492;2022-07-29T02:41:31;25.70;56.00
64718;DHT22;62506;46.070;14.492;2022-07-29T02:44:03;25.70;56.00
64718;DHT22;62506;46.070;14.492;2022-07-29T02:46:31;25.70;55.90
64718;DHT22;62506;46.070;14.492;2022-07-29T02:51:27;25.70;55.90
64718;DHT22;62506;46.070;14.492;2022-07-29T02:53:54;25.70;56.10
64718;DHT22;62506;46.070;14.492;2022-07-29T02:56:26;25.70;56.20
64718;DHT22;62506;46.070;14.492;2022-07-29T02:58:54;25.70;56.20
64718;DHT22;62506;46.070;14.492;2022-07-29T03:01:22;25.70;56.10
64718;DHT22;62506;46.070;14.492;2022-07-29T03:03:48;25.70;56.10
64718;DHT22;62506;46.070;14.492;2022-07-29T03:06:14;25.70;56.10
64718;DHT22;62506;46.070;14.492;2022-07-29T03:08:40;25.70;56.10
64718;DHT22;62506;46.070;14.492;2022-07-29T03:11:07;25.70;56.00
64718;DHT22;62506;46.070;14.492;2022-07-29T03:13:33;25.70;56.00
64718;DHT22;62506;46.070;14.492;2022-07-29T03:15:59;25.70;56.00
64718;DHT22;62506;46.070;14.492;2022-07-29T03:18:25;25.70;55.90
64718;DHT22;62506;46.070;14.492;2022-07-29T03:20:51;25.70;56.00
64718;DHT22;62506;46.070;14.492;2022-07-29T03:23:20;25.70;56.00
64718;DHT22;62506;46.070;14.492;2022-07-29T03:25:48;25.70;56.10
64718;DHT22;62506;46.070;14.492;2022-07-29T03:28:13;25.70;56.10
64718;DHT22;62506;46.070;14.492;2022-07-29T03:30:39;25.60;56.00
64718;DHT22;62506;46.070;14.492;2022-07-29T03:33:04;25.60;56.10
64718;DHT22;62506;46.070;14.492;2022-07-29T03:35:32;25.60;56.10
64718;DHT22;62506;46.070;14.492;2022-07-29T03:37:58;25.60;56.10
64718;DHT22;62506;46.070;14.492;2022-07-29T03:43:08;25.60;56.20
64718;DHT22;62506;46.070;14.492;2022-07-29T03:45:34;25.60;55.50
64718;DHT22;62506;46.070;14.492;2022-07-29T03:48:07;25.40;55.40
64718;DHT22;62506;46.070;14.492;2022-07-29T03:50:33;25.30;55.60
64718;DHT22;62506;46.070;14.492;2022-07-29T03:52:59;25.20;55.80
64718;DHT22;62506;46.070;14.492;2022-07-29T03:55:25;25.10;55.90
64718;DHT22;62506;46.070;14.492;2022-07-29T03:57:51;25.00;56.10
64718;DHT22;62506;46.070;14.492;2022-07-29T04:00:17;24.80;56.30
64718;DHT22;62506;46.070;14.492;2022-07-29T04:02:43;24.80;56.50
64718;DHT22;62506;46.070;14.492;2022-07-29T04:05:13;24.70;56.60
64718;DHT22;62506;46.070;14.492;2022-07-29T04:07:40;24.60;56.80
64718;DHT22;62506;46.070;14.492;2022-07-29T04:10:06;24.60;57.10
64718;DHT22;62506;46.070;14.492;2022-07-29T04:12:31;24.60;57.10
64718;DHT22;62506;46.070;14.492;2022-07-29T04:14:57;24.60;57.80
64718;DHT22;62506;46.070;14.492;2022-07-29T04:17:22;24.60;57.20
64718;DHT22;62506;46.070;14.492;2022-07-29T04:19:48;24.60;57.30
64718;DHT22;62506;46.070;14.492;2022-07-29T04:22:13;24.60;57.30
64718;DHT22;62506;46.070;14.492;2022-07-29T04:24:39;24.60;57.20
64718;DHT22;62506;46.070;14.492;2022-07-29T04:27:04;24.60;57.50
64718;DHT22;62506;46.070;14.492;2022-07-29T04:29:30;24.60;57.50
64718;DHT22;62506;46.070;14.492;2022-07-29T04:31:55;24.50;57.50
64718;DHT22;62506;46.070;14.492;2022-07-29T04:34:21;24.40;57.60
64718;DHT22;62506;46.070;14.492;2022-07-29T04:36:46;24.40;58.00
64718;DHT22;62506;46.070;14.492;2022-07-29T04:39:12;24.40;57.90
64718;DHT22;62506;46.070;14.492;2022-07-29T04:41:37;24.40;57.70
64718;DHT22;62506;46.070;14.492;2022-07-29T04:44:03;24.50;57.60
64718;DHT22;62506;46.070;14.492;2022-07-29T04:46:30;24.40;57.70
64718;DHT22;62506;46.070;14.492;2022-07-29T04:48:56;24.30;58.10
64718;DHT22;62506;46.070;14.492;2022-07-29T04:51:21;24.30;58.20
64718;DHT22;62506;46.070;14.492;2022-07-29T04:53:47;24.30;58.10
64718;DHT22;62506;46.070;14.492;2022-07-29T04:56:13;24.30;58.20
64718;DHT22;62506;46.070;14.492;2022-07-29T04:58:38;24.30;58.10
64718;DHT22;62506;46.070;14.492;2022-07-29T05:01:04;24.30;58.10
64718;DHT22;62506;46.070;14.492;2022-07-29T05:03:31;24.30;58.10
64718;DHT22;62506;46.070;14.492;2022-07-29T05:05:57;24.30;58.30
64718;DHT22;62506;46.070;14.492;2022-07-29T05:08:22;24.20;58.60
64718;DHT22;62506;46.070;14.492;2022-07-29T05:10:48;24.20;58.80
64718;DHT22;62506;46.070;14.492;2022-07-29T05:13:13;24.20;58.80
64718;DHT22;62506;46.070;14.492;2022-07-29T05:15:39;24.20;59.30
64718;DHT22;62506;46.070;14.492;2022-07-29T05:18:04;24.10;58.70
64718;DHT22;62506;46.070;14.492;2022-07-29T05:20:30;24.10;59.00
64718;DHT22;62506;46.070;14.492;2022-07-29T05:22:57;24.10;59.10
64718;DHT22;62506;46.070;14.492;2022-07-29T05:25:22;24.20;58.90
64718;DHT22;62506;46.070;14.492;2022-07-29T05:27:48;24.30;58.70
64718;DHT22;62506;46.070;14.492;2022-07-29T05:30:14;24.30;58.70
64718;DHT22;62506;46.070;14.492;2022-07-29T05:32:39;24.20;58.70
64718;DHT22;62506;46.070;14.492;2022-07-29T05:35:05;24.20;58.70
64718;DHT22;62506;46.070;14.492;2022-07-29T05:37:30;24.20;58.80
64718;DHT22;62506;46.070;14.492;2022-07-29T05:39:56;24.20;58.70
64718;DHT22;62506;46.070;14.492;2022-07-29T05:42:21;24.20;58.60
64718;DHT22;62506;46.070;14.492;2022-07-29T05:44:47;24.20;58.70
64718;DHT22;62506;46.070;14.492;2022-07-29T05:47:12;24.20;58.70
64718;DHT22;62506;46.070;14.492;2022-07-29T05:49:38;24.10;58.80
64718;DHT22;62506;46.070;14.492;2022-07-29T05:52:03;24.10;58.80
64718;DHT22;62506;46.070;14.492;2022-07-29T05:54:29;24.10;58.90
64718;DHT22;62506;46.070;14.492;2022-07-29T05:56:54;24.20;59.00
64718;DHT22;62506;46.070;14.492;2022-07-29T05:59:20;24.10;59.30
64718;DHT22;62506;46.070;14.492;2022-07-29T06:01:46;24.10;59.50
64718;DHT22;62506;46.070;14.492;2022-07-29T06:04:11;24.10;59.60
64718;DHT22;62506;46.070;14.492;2022-07-29T06:06:37;24.10;59.50
64718;DHT22;62506;46.070;14.492;2022-07-29T06:09:02;24.10;59.50
64718;DHT22;62506;46.070;14.492;2022-07-29T06:11:28;24.20;59.60
64718;DHT22;62506;46.070;14.492;2022-07-29T06:13:53;24.20;59.60
64718;DHT22;62506;46.070;14.492;2022-07-29T06:16:19;24.20;59.70
64718;DHT22;62506;46.070;14.492;2022-07-29T06:18:44;24.20;59.60
64718;DHT22;62506;46.070;14.492;2022-07-29T06:21:10;24.20;59.50
64718;DHT22;62506;46.070;14.492;2022-07-29T06:23:36;24.20;59.60
64718;DHT22;62506;46.070;14.492;2022-07-29T06:26:02;24.20;59.40
64718;DHT22;62506;46.070;14.492;2022-07-29T06:28:30;24.20;59.50
64718;DHT22;62506;46.070;14.492;2022-07-29T06:30:56;24.30;59.60
64718;DHT22;62506;46.070;14.492;2022-07-29T06:33:21;24.30;59.80
64718;DHT22;62506;46.070;14.492;2022-07-29T06:35:47;24.30;59.80
64718;DHT22;62506;46.070;14.492;2022-07-29T06:38:14;24.30;59.70
64718;DHT22;62506;46.070;14.492;2022-07-29T06:40:43;24.30;59.60
64718;DHT22;62506;46.070;14.492;2022-07-29T06:43:47;24.30;59.30
64718;DHT22;62506;46.070;14.492;2022-07-29T06:46:13;24.40;59.10
64718;DHT22;62506;46.070;14.492;2022-07-29T06:48:40;24.50;58.90
64718;DHT22;62506;46.070;14.492;2022-07-29T06:51:07;24.40;58.60
64718;DHT22;62506;46.070;14.492;2022-07-29T06:53:33;24.50;58.70
64718;DHT22;62506;46.070;14.492;2022-07-29T06:56:00;24.50;58.80
64718;DHT22;62506;46.070;14.492;2022-07-29T06:58:26;24.40;58.90
64718;DHT22;62506;46.070;14.492;2022-07-29T07:00:51;24.40;58.80
64718;DHT22;62506;46.070;14.492;2022-07-29T07:03:17;24.50;58.70
64718;DHT22;62506;46.070;14.492;2022-07-29T07:05:43;24.50;58.50
64718;DHT22;62506;46.070;14.492;2022-07-29T07:08:08;24.50;58.40
64718;DHT22;62506;46.070;14.492;2022-07-29T07:10:34;24.50;58.70
64718;DHT22;62506;46.070;14.492;2022-07-29T07:13:00;24.60;58.80
64718;DHT22;62506;46.070;14.492;2022-07-29T07:15:26;24.60;59.60
64718;DHT22;62506;46.070;14.492;2022-07-29T07:17:52;24.60;58.80
64718;DHT22;62506;46.070;14.492;2022-07-29T07:20:17;24.60;58.50
64718;DHT22;62506;46.070;14.492;2022-07-29T07:22:43;24.60;58.20
64718;DHT22;62506;46.070;14.492;2022-07-29T07:25:08;24.70;58.10
64718;DHT22;62506;46.070;14.492;2022-07-29T07:27:34;24.70;57.90
64718;DHT22;62506;46.070;14.492;2022-07-29T07:30:04;24.70;57.90
64718;DHT22;62506;46.070;14.492;2022-07-29T07:32:31;24.70;57.80
64718;DHT22;62506;46.070;14.492;2022-07-29T07:34:56;24.80;57.80
64718;DHT22;62506;46.070;14.492;2022-07-29T07:37:22;24.70;57.30
64718;DHT22;62506;46.070;14.492;2022-07-29T07:39:50;24.80;57.50
64718;DHT22;62506;46.070;14.492;2022-07-29T07:42:15;24.80;57.20
64718;DHT22;62506;46.070;14.492;2022-07-29T07:44:41;24.80;57.20
64718;DHT22;62506;46.070;14.492;2022-07-29T07:47:07;24.90;58.00
64718;DHT22;62506;46.070;14.492;2022-07-29T07:49:32;24.90;58.20
64718;DHT22;62506;46.070;14.492;2022-07-29T07:51:57;25.00;57.40
64718;DHT22;62506;46.070;14.492;2022-07-29T07:54:23;25.00;57.10
64718;DHT22;62506;46.070;14.492;2022-07-29T07:56:48;25.00;56.50
64718;DHT22;62506;46.070;14.492;2022-07-29T07:59:15;25.00;55.90
64718;DHT22;62506;46.070;14.492;2022-07-29T08:01:40;25.00;55.90
64718;DHT22;62506;46.070;14.492;2022-07-29T08:04:06;25.10;56.80
64718;DHT22;62506;46.070;14.492;2022-07-29T08:06:33;25.10;56.70
64718;DHT22;62506;46.070;14.492;2022-07-29T08:09:00;25.20;57.40
64718;DHT22;62506;46.070;14.492;2022-07-29T08:11:25;25.10;58.20
64718;DHT22;62506;46.070;14.492;2022-07-29T08:13:52;25.10;57.10
64718;DHT22;62506;46.070;14.492;2022-07-29T08:16:18;25.10;57.00
64718;DHT22;62506;46.070;14.492;2022-07-29T08:18:45;25.20;57.30
64718;DHT22;62506;46.070;14.492;2022-07-29T08:21:11;25.20;57.40
64718;DHT22;62506;46.070;14.492;2022-07-29T08:23:36;25.20;57.30
64718;DHT22;62506;46.070;14.492;2022-07-29T08:26:11;25.20;57.30
64718;DHT22;62506;46.070;14.492;2022-07-29T08:28:37;25.20;57.40
64718;DHT22;62506;46.070;14.492;2022-07-29T08:31:03;25.20;57.40
64718;DHT22;62506;46.070;14.492;2022-07-29T08:33:29;25.20;57.40
64718;DHT22;62506;46.070;14.492;2022-07-29T08:35:54;25.20;57.50
64718;DHT22;62506;46.070;14.492;2022-07-29T08:38:20;25.20;57.60
64718;DHT22;62506;46.070;14.492;2022-07-29T08:40:45;25.20;57.80
64718;DHT22;62506;46.070;14.492;2022-07-29T08:43:11;25.20;58.40
64718;DHT22;62506;46.070;14.492;2022-07-29T08:45:41;25.20;57.70
64718;DHT22;62506;46.070;14.492;2022-07-29T08:48:07;25.20;57.70
64718;DHT22;62506;46.070;14.492;2022-07-29T08:50:34;25.30;58.10
64718;DHT22;62506;46.070;14.492;2022-07-29T08:53:00;25.30;58.60
64718;DHT22;62506;46.070;14.492;2022-07-29T08:55:26;25.30;58.40
64718;DHT22;62506;46.070;14.492;2022-07-29T08:57:52;25.30;57.90
64718;DHT22;62506;46.070;14.492;2022-07-29T09:00:17;25.30;57.90
64718;DHT22;62506;46.070;14.492;2022-07-29T09:02:44;25.30;58.60
64718;DHT22;62506;46.070;14.492;2022-07-29T09:05:10;25.30;57.80
64718;DHT22;62506;46.070;14.492;2022-07-29T09:07:36;25.40;57.60
64718;DHT22;62506;46.070;14.492;2022-07-29T09:10:04;25.40;57.60
64718;DHT22;62506;46.070;14.492;2022-07-29T09:12:29;25.40;57.60
64718;DHT22;62506;46.070;14.492;2022-07-29T09:14:55;25.40;57.50
64718;DHT22;62506;46.070;14.492;2022-07-29T09:17:39;25.40;57.50
64718;DHT22;62506;46.070;14.492;2022-07-29T09:20:08;25.40;57.40
64718;DHT22;62506;46.070;14.492;2022-07-29T09:22:34;25.40;57.40
64718;DHT22;62506;46.070;14.492;2022-07-29T09:24:59;25.40;57.30
64718;DHT22;62506;46.070;14.492;2022-07-29T09:27:25;25.40;57.40
64718;DHT22;62506;46.070;14.492;2022-07-29T09:30:10;25.50;57.50
64718;DHT22;62506;46.070;14.492;2022-07-29T09:32:54;25.50;57.40
64718;DHT22;62506;46.070;14.492;2022-07-29T09:35:21;25.50;57.40
64718;DHT22;62506;46.070;14.492;2022-07-29T09:37:47;25.50;57.30
64718;DHT22;62506;46.070;14.492;2022-07-29T09:40:18;25.50;57.50
64718;DHT22;62506;46.070;14.492;2022-07-29T09:42:44;25.50;57.40
64718;DHT22;62506;46.070;14.492;2022-07-29T09:45:10;25.50;57.50
64718;DHT22;62506;46.070;14.492;2022-07-29T09:47:46;25.50;57.30
64718;DHT22;62506;46.070;14.492;2022-07-29T09:50:14;25.50;57.40
64718;DHT22;62506;46.070;14.492;2022-07-29T09:52:47;25.50;57.30
64718;DHT22;62506;46.070;14.492;2022-07-29T09:55:13;25.60;57.30
64718;DHT22;62506;46.070;14.492;2022-07-29T09:57:39;25.60;57.30
64718;DHT22;62506;46.070;14.492;2022-07-29T10:02:33;25.50;57.50
64718;DHT22;62506;46.070;14.492;2022-07-29T10:04:59;25.50;57.40
64718;DHT22;62506;46.070;14.492;2022-07-29T10:07:25;25.60;57.60
64718;DHT22;62506;46.070;14.492;2022-07-29T10:09:54;25.60;57.60
64718;DHT22;62506;46.070;14.492;2022-07-29T10:12:20;25.60;57.80
64718;DHT22;62506;46.070;14.492;2022-07-29T10:14:45;25.60;57.90
64718;DHT22;62506;46.070;14.492;2022-07-29T10:17:11;25.60;57.60
64718;DHT22;62506;46.070;14.492;2022-07-29T10:19:37;25.60;57.80
64718;DHT22;62506;46.070;14.492;2022-07-29T10:22:07;25.60;58.20
64718;DHT22;62506;46.070;14.492;2022-07-29T10:24:34;25.60;58.90
64718;DHT22;62506;46.070;14.492;2022-07-29T10:27:01;25.60;58.40
64718;DHT22;62506;46.070;14.492;2022-07-29T10:29:27;25.60;59.00
64718;DHT22;62506;46.070;14.492;2022-07-29T10:37:03;25.60;58.50
64718;DHT22;62506;46.070;14.492;2022-07-29T10:39:53;25.60;58.20
64718;DHT22;62506;46.070;14.492;2022-07-29T10:42:22;25.50;58.40
64718;DHT22;62506;46.070;14.492;2022-07-29T10:44:50;25.50;59.00
64718;DHT22;62506;46.070;14.492;2022-07-29T10:47:24;25.60;58.40
64718;DHT22;62506;46.070;14.492;2022-07-29T10:49:57;25.60;58.70
64718;DHT22;62506;46.070;14.492;2022-07-29T10:52:23;25.50;58.50
64718;DHT22;62506;46.070;14.492;2022-07-29T10:54:53;25.60;59.20
64718;DHT22;62506;46.070;14.492;2022-07-29T10:57:20;25.60;58.90
64718;DHT22;62506;46.070;14.492;2022-07-29T10:59:48;25.50;58.80
64718;DHT22;62506;46.070;14.492;2022-07-29T11:07:28;25.60;59.20
64718;DHT22;62506;46.070;14.492;2022-07-29T11:10:28;25.60;58.50
64718;DHT22;62506;46.070;14.492;2022-07-29T11:12:46;25.60;57.90
64718;DHT22;62506;46.070;14.492;2022-07-29T11:15:16;25.60;57.90
64718;DHT22;62506;46.070;14.492;2022-07-29T11:25:43;25.60;57.90
64718;DHT22;62506;46.070;14.492;2022-07-29T11:28:10;25.70;58.10
64718;DHT22;62506;46.070;14.492;2022-07-29T11:30:51;25.70;57.80
64718;DHT22;62506;46.070;14.492;2022-07-29T11:33:30;25.60;58.10
64718;DHT22;62506;46.070;14.492;2022-07-29T11:36:12;25.70;57.90
64718;DHT22;62506;46.070;14.492;2022-07-29T11:38:37;25.70;58.20
64718;DHT22;62506;46.070;14.492;2022-07-29T11:41:19;25.70;58.10
64718;DHT22;62506;46.070;14.492;2022-07-29T11:49:03;25.70;58.10
64718;DHT22;62506;46.070;14.492;2022-07-29T11:51:29;25.70;58.40
64718;DHT22;62506;46.070;14.492;2022-07-29T11:53:55;25.70;58.20
64718;DHT22;62506;46.070;14.492;2022-07-29T11:56:21;25.70;58.10
64718;DHT22;62506;46.070;14.492;2022-07-29T11:58:46;25.70;58.20
64718;DHT22;62506;46.070;14.492;2022-07-29T12:01:16;25.70;58.20
64718;DHT22;62506;46.070;14.492;2022-07-29T12:03:42;25.70;58.10
64718;DHT22;62506;46.070;14.492;2022-07-29T12:06:11;25.70;58.40
64718;DHT22;62506;46.070;14.492;2022-07-29T12:08:39;25.70;58.00
64718;DHT22;62506;46.070;14.492;2022-07-29T12:11:14;25.80;58.00
64718;DHT22;62506;46.070;14.492;2022-07-29T12:13:40;25.70;58.00
64718;DHT22;62506;46.070;14.492;2022-07-29T12:16:05;25.70;58.10
64718;DHT22;62506;46.070;14.492;2022-07-29T12:18:31;25.70;58.00
64718;DHT22;62506;46.070;14.492;2022-07-29T12:21:00;25.80;58.00
64718;DHT22;62506;46.070;14.492;2022-07-29T12:23:29;25.70;57.90
64718;DHT22;62506;46.070;14.492;2022-07-29T12:25:55;25.70;57.90
64718;DHT22;62506;46.070;14.492;2022-07-29T12:28:20;25.80;58.10
64718;DHT22;62506;46.070;14.492;2022-07-29T12:30:50;25.80;58.90
64718;DHT22;62506;46.070;14.492;2022-07-29T12:35:42;25.90;59.60
64718;DHT22;62506;46.070;14.492;2022-07-29T12:38:09;25.90;59.20
64718;DHT22;62506;46.070;14.492;2022-07-29T12:40:34;26.00;59.70
64718;DHT22;62506;46.070;14.492;2022-07-29T12:45:35;26.00;59.30
64718;DHT22;62506;46.070;14.492;2022-07-29T12:48:04;26.00;60.00
64718;DHT22;62506;46.070;14.492;2022-07-29T12:50:30;26.00;59.80
64718;DHT22;62506;46.070;14.492;2022-07-29T12:53:10;26.00;60.00
64718;DHT22;62506;46.070;14.492;2022-07-29T12:58:09;25.90;59.40
64718;DHT22;62506;46.070;14.492;2022-07-29T13:00:34;25.90;59.60
64718;DHT22;62506;46.070;14.492;2022-07-29T13:03:00;25.90;59.60
64718;DHT22;62506;46.070;14.492;2022-07-29T13:05:38;25.90;59.80
64718;DHT22;62506;46.070;14.492;2022-07-29T13:08:14;25.90;59.60
64718;DHT22;62506;46.070;14.492;2022-07-29T13:10:40;25.90;59.60
64718;DHT22;62506;46.070;14.492;2022-07-29T13:13:15;25.90;59.50
64718;DHT22;62506;46.070;14.492;2022-07-29T13:15:42;25.90;59.50
64718;DHT22;62506;46.070;14.492;2022-07-29T13:18:30;25.90;59.20
64718;DHT22;62506;46.070;14.492;2022-07-29T13:20:56;26.00;59.00
64718;DHT22;62506;46.070;14.492;2022-07-29T13:23:21;26.10;59.20
64718;DHT22;62506;46.070;14.492;2022-07-29T13:25:47;26.10;58.90
64718;DHT22;62506;46.070;14.492;2022-07-29T13:28:13;26.10;58.80
64718;DHT22;62506;46.070;14.492;2022-07-29T13:30:41;26.10;58.80
64718;DHT22;62506;46.070;14.492;2022-07-29T13:33:07;26.10;58.80
64718;DHT22;62506;46.070;14.492;2022-07-29T13:35:33;26.20;58.80
64718;DHT22;62506;46.070;14.492;2022-07-29T13:37:58;26.20;58.80
64718;DHT22;62506;46.070;14.492;2022-07-29T13:40:24;26.20;58.50
64718;DHT22;62506;46.070;14.492;2022-07-29T13:42:49;26.20;58.70
64718;DHT22;62506;46.070;14.492;2022-07-29T13:45:15;26.30;58.80
64718;DHT22;62506;46.070;14.492;2022-07-29T13:47:41;26.30;59.40
64718;DHT22;62506;46.070;14.492;2022-07-29T13:50:07;26.30;59.60
64718;DHT22;62506;46.070;14.492;2022-07-29T13:52:33;26.30;59.60
64718;DHT22;62506;46.070;14.492;2022-07-29T13:54:59;26.30;60.00
64718;DHT22;62506;46.070;14.492;2022-07-29T13:57:24;26.30;60.00
64718;DHT22;62506;46.070;14.492;2022-07-29T13:59:50;26.30;60.00
64718;DHT22;62506;46.070;14.492;2022-07-29T14:02:16;26.30;61.10
64718;DHT22;62506;46.070;14.492;2022-07-29T14:04:42;26.40;60.60
64718;DHT22;62506;46.070;14.492;2022-07-29T14:07:07;26.40;61.10
64718;DHT22;62506;46.070;14.492;2022-07-29T14:09:33;26.40;60.80
64718;DHT22;62506;46.070;14.492;2022-07-29T14:11:59;26.40;61.50
64718;DHT22;62506;46.070;14.492;2022-07-29T14:14:24;26.40;61.10
64718;DHT22;62506;46.070;14.492;2022-07-29T14:16:50;26.40;61.80
64718;DHT22;62506;46.070;14.492;2022-07-29T14:19:15;26.50;61.80
64718;DHT22;62506;46.070;14.492;2022-07-29T14:21:41;26.50;61.70
64718;DHT22;62506;46.070;14.492;2022-07-29T14:24:06;26.50;61.60
64718;DHT22;62506;46.070;14.492;2022-07-29T14:26:32;26.50;61.70
64718;DHT22;62506;46.070;14.492;2022-07-29T14:28:58;26.50;61.50
64718;DHT22;62506;46.070;14.492;2022-07-29T14:31:23;26.50;61.70
64718;DHT22;62506;46.070;14.492;2022-07-29T14:33:49;26.40;61.10
64718;DHT22;62506;46.070;14.492;2022-07-29T14:36:14;26.40;61.00
64718;DHT22;62506;46.070;14.492;2022-07-29T14:38:40;26.40;61.10
64718;DHT22;62506;46.070;14.492;2022-07-29T14:41:06;26.40;61.00
64718;DHT22;62506;46.070;14.492;2022-07-29T14:43:31;26.50;61.20
64718;DHT22;62506;46.070;14.492;2022-07-29T14:45:57;26.40;61.40
64718;DHT22;62506;46.070;14.492;2022-07-29T14:48:22;26.40;61.20
64718;DHT22;62506;46.070;14.492;2022-07-29T14:50:48;26.40;61.50
64718;DHT22;62506;46.070;14.492;2022-07-29T14:53:13;26.50;61.20
64718;DHT22;62506;46.070;14.492;2022-07-29T14:55:39;26.50;61.80
64718;DHT22;62506;46.070;14.492;2022-07-29T14:58:05;26.50;61.70
64718;DHT22;62506;46.070;14.492;2022-07-29T15:00:31;26.50;61.60
64718;DHT22;62506;46.070;14.492;2022-07-29T15:03:01;26.50;61.20
64718;DHT22;62506;46.070;14.492;2022-07-29T15:05:26;26.50;61.00
64718;DHT22;62506;46.070;14.492;2022-07-29T15:07:52;26.50;60.70
64718;DHT22;62506;46.070;14.492;2022-07-29T15:10:17;26.50;61.40
64718;DHT22;62506;46.070;14.492;2022-07-29T15:12:43;26.60;60.90
64718;DHT22;62506;46.070;14.492;2022-07-29T15:15:08;26.50;61.10
64718;DHT22;62506;46.070;14.492;2022-07-29T15:17:34;26.60;61.20
64718;DHT22;62506;46.070;14.492;2022-07-29T15:20:00;26.60;61.00
64718;DHT22;62506;46.070;14.492;2022-07-29T15:22:25;26.60;61.00
64718;DHT22;62506;46.070;14.492;2022-07-29T15:24:51;26.70;61.10
64718;DHT22;62506;46.070;14.492;2022-07-29T15:27:16;26.70;61.00
64718;DHT22;62506;46.070;14.492;2022-07-29T15:29:42;26.70;60.50
64718;DHT22;62506;46.070;14.492;2022-07-29T15:32:08;26.70;61.00
64718;DHT22;62506;46.070;14.492;2022-07-29T15:34:33;26.70;61.20
64718;DHT22;62506;46.070;14.492;2022-07-29T15:36:59;26.70;60.80
64718;DHT22;62506;46.070;14.492;2022-07-29T15:39:24;26.70;61.50
64718;DHT22;62506;46.070;14.492;2022-07-29T15:41:50;26.70;61.30
64718;DHT22;62506;46.070;14.492;2022-07-29T15:44:16;26.70;62.00
64718;DHT22;62506;46.070;14.492;2022-07-29T15:46:41;26.70;61.90
64718;DHT22;62506;46.070;14.492;2022-07-29T15:49:25;26.70;62.00
64718;DHT22;62506;46.070;14.492;2022-07-29T15:51:59;26.70;61.80
64718;DHT22;62506;46.070;14.492;2022-07-29T15:54:26;26.70;61.70
64718;DHT22;62506;46.070;14.492;2022-07-29T15:56:51;26.70;62.10
64718;DHT22;62506;46.070;14.492;2022-07-29T15:59:17;26.70;61.70